Time;durP1;ratioP1;P1;durP2;ratioP2;P2;SDS_P1;SDS_P2;PMS_P1;PMS_P2;Temp;Humidity;BMP_temperature;BMP_pressure;BME280_temperature;BME280_humidity;BME280_pressure;Samples;Min_cycle;Max_cycle;Signal;HPM_P1;HPM_P2
2022/11/22 00:01:53;;;;;;;15.57;10.07;;;;;;;;;;4996647;28;20411;-91
2022/11/22 00:04:18;;;;;;;15.67;8.77;;;;;;;;;;4980815;28;20465;-85
2022/11/22 00:06:44;;;;;;;16.40;10.93;;;;;;;;;;4971310;28;20412;-88
2022/11/22 00:09:11;;;;;;;21.57;12.17;;;;;;;;;;4960299;28;20946;-87
2022/11/22 00:11:36;;;;;;;13.80;9.73;;;;;;;;;;4977889;28;20412;-90
2022/11/22 00:14:02;;;;;;;14.67;10.60;;;;;;;;;;4976258;28;20434;-88
2022/11/22 00:16:29;;;;;;;15.70;10.00;;;;;;;;;;4980062;28;20426;-88
2022/11/22 00:18:54;;;;;;;13.27;7.73;;;;;;;;;;4997243;28;20407;-92
2022/11/22 00:21:20;;;;;;;11.87;8.93;;;;;;;;;;4979509;28;20991;-86
2022/11/22 00:23:46;;;;;;;16.53;9.90;;;;;;;;;;4979170;28;20471;-88
2022/11/22 00:26:12;;;;;;;17.20;8.80;;;;;;;;;;4979571;28;20781;-87
2022/11/22 00:28:38;;;;;;;17.70;10.70;;;;;;;;;;4996124;28;20473;-91
2022/11/22 00:31:04;;;;;;;16.17;10.73;;;;;;;;;;4979250;28;20511;-84
2022/11/22 00:33:30;;;;;;;11.73;8.77;;;;;;;;;;4978383;28;20899;-83
2022/11/22 00:35:56;;;;;;;15.13;8.47;;;;;;;;;;4995381;28;20419;-84
2022/11/22 00:38:22;;;;;;;17.50;9.60;;;;;;;;;;4994724;28;20422;-85
2022/11/22 00:40:48;;;;;;;20.80;9.80;;;;;;;;;;4978701;28;20761;-84
2022/11/22 00:43:14;;;;;;;15.40;10.43;;;;;;;;;;4995792;28;20431;-88
2022/11/22 00:45:40;;;;;;;17.23;11.33;;;;;;;;;;4995830;28;20420;-84
2022/11/22 00:48:06;;;;;;;13.93;10.00;;;;;;;;;;4996007;28;20411;-85
2022/11/22 00:50:32;;;;;;;19.63;9.80;;;;;;;;;;4995681;28;20503;-84
2022/11/22 00:52:58;;;;;;;15.00;8.13;;;;;;;;;;4995295;28;20422;-83
2022/11/22 00:55:24;;;;;;;18.27;9.43;;;;;;;;;;4995468;28;20406;-84
2022/11/22 00:57:50;;;;;;;18.97;10.20;;;;;;;;;;4995324;28;20446;-85
2022/11/22 01:00:19;;;;;;;17.80;10.90;;;;;;;;;;4978880;28;20454;-89
2022/11/22 01:02:45;;;;;;;14.07;8.97;;;;;;;;;;4979060;28;20931;-87
2022/11/22 01:05:11;;;;;;;13.53;8.53;;;;;;;;;;4996592;28;20481;-88
2022/11/22 01:07:37;;;;;;;19.80;12.20;;;;;;;;;;4979181;28;20419;-87
2022/11/22 01:10:03;;;;;;;15.70;10.77;;;;;;;;;;4978948;28;20422;-90
2022/11/22 01:12:29;;;;;;;15.60;11.33;;;;;;;;;;4996301;28;20491;-85
2022/11/22 01:14:55;;;;;;;12.90;9.03;;;;;;;;;;4995564;28;20457;-86
2022/11/22 01:17:21;;;;;;;14.20;8.63;;;;;;;;;;4977656;28;20860;-83
2022/11/22 01:19:47;;;;;;;16.40;8.77;;;;;;;;;;4995111;28;20756;-85
2022/11/22 01:22:13;;;;;;;13.43;9.63;;;;;;;;;;4995198;28;20410;-87
2022/11/22 01:24:42;;;;;;;15.23;9.33;;;;;;;;;;4994913;28;20521;-85
2022/11/22 01:27:08;;;;;;;16.60;9.50;;;;;;;;;;4994575;28;20411;-84
2022/11/22 01:29:34;;;;;;;18.03;11.70;;;;;;;;;;4977555;28;20433;-85
2022/11/22 01:32:00;;;;;;;20.50;11.13;;;;;;;;;;4994714;28;20415;-85
2022/11/22 01:34:25;;;;;;;16.77;10.60;;;;;;;;;;4995050;28;20429;-85
2022/11/22 01:36:51;;;;;;;18.50;11.80;;;;;;;;;;4977650;28;20424;-85
2022/11/22 01:39:17;;;;;;;14.47;10.10;;;;;;;;;;4977446;28;20444;-86
2022/11/22 01:41:43;;;;;;;17.37;9.73;;;;;;;;;;4977150;28;20484;-85
2022/11/22 01:44:18;;;;;;;13.03;8.27;;;;;;;;;;4994201;28;20474;-86
2022/11/22 01:46:44;;;;;;;18.50;11.07;;;;;;;;;;4994523;28;20437;-86
2022/11/22 01:49:13;;;;;;;21.43;11.20;;;;;;;;;;4977123;28;20426;-85
2022/11/22 01:51:41;;;;;;;21.57;10.90;;;;;;;;;;4994352;28;20434;-86
2022/11/22 01:54:09;;;;;;;15.47;9.90;;;;;;;;;;4994399;28;20418;-85
2022/11/22 01:56:36;;;;;;;16.17;10.13;;;;;;;;;;4994252;28;20418;-85
2022/11/22 01:59:05;;;;;;;17.70;10.20;;;;;;;;;;4976328;28;20479;-87
2022/11/22 02:01:31;;;;;;;14.57;9.87;;;;;;;;;;4976613;28;20458;-86
2022/11/22 02:03:59;;;;;;;13.50;8.67;;;;;;;;;;4976613;28;20555;-87
2022/11/22 02:06:28;;;;;;;13.67;8.53;;;;;;;;;;4985104;28;20424;-88
2022/11/22 02:08:58;;;;;;;15.70;9.00;;;;;;;;;;4996257;28;20413;-87
2022/11/22 02:11:24;;;;;;;17.67;11.40;;;;;;;;;;4996081;28;20413;-86
2022/11/22 02:13:51;;;;;;;20.20;9.93;;;;;;;;;;5013271;28;20843;-85
2022/11/22 02:16:17;;;;;;;14.20;8.97;;;;;;;;;;4995882;28;20510;-86
2022/11/22 02:18:43;;;;;;;20.47;11.50;;;;;;;;;;5013788;28;20441;-87
2022/11/22 02:21:09;;;;;;;17.73;10.73;;;;;;;;;;4996210;28;20424;-84
2022/11/22 02:23:34;;;;;;;14.23;8.33;;;;;;;;;;4995986;28;20819;-86
2022/11/22 02:26:02;;;;;;;16.20;9.87;;;;;;;;;;4995913;28;20907;-85
2022/11/22 02:28:29;;;;;;;18.67;9.27;;;;;;;;;;5012923;28;20792;-85
2022/11/22 02:30:55;;;;;;;14.43;8.57;;;;;;;;;;5013422;28;20425;-85
2022/11/22 02:33:21;;;;;;;18.63;11.20;;;;;;;;;;5013381;28;20416;-85
2022/11/22 02:35:47;;;;;;;17.83;10.90;;;;;;;;;;4995754;28;20928;-86
2022/11/22 02:38:16;;;;;;;19.40;10.77;;;;;;;;;;4995919;28;20428;-85
2022/11/22 02:40:45;;;;;;;17.17;11.20;;;;;;;;;;4996943;28;20414;-88
2022/11/22 02:43:12;;;;;;;15.47;8.80;;;;;;;;;;4996680;28;20840;-93
2022/11/22 02:45:38;;;;;;;19.83;9.37;;;;;;;;;;5015044;28;20420;-93
2022/11/22 02:48:12;;;;;;;19.17;10.70;;;;;;;;;;5014160;28;20401;-92
2022/11/22 02:50:38;;;;;;;14.27;9.87;;;;;;;;;;5014319;28;20429;-90
2022/11/22 02:53:04;;;;;;;18.27;9.97;;;;;;;;;;5014595;28;20413;-93
2022/11/22 02:55:30;;;;;;;21.10;11.90;;;;;;;;;;5015098;28;20470;-95
2022/11/22 02:57:56;;;;;;;20.10;10.43;;;;;;;;;;5014779;28;20417;-90
2022/11/22 03:00:25;;;;;;;20.30;10.83;;;;;;;;;;5015330;28;20409;-94
2022/11/22 03:02:51;;;;;;;20.30;12.47;;;;;;;;;;5014874;28;20417;-92
2022/11/22 03:05:17;;;;;;;21.97;11.87;;;;;;;;;;4997729;28;20989;-93
2022/11/22 03:07:43;;;;;;;17.43;9.70;;;;;;;;;;5014909;28;20416;-88
2022/11/22 03:10:10;;;;;;;12.40;9.37;;;;;;;;;;5014896;28;20424;-90
2022/11/22 03:12:36;;;;;;;13.60;8.63;;;;;;;;;;5014154;28;20463;-89
2022/11/22 03:15:02;;;;;;;15.23;10.63;;;;;;;;;;5014642;28;20413;-89
2022/11/22 03:17:28;;;;;;;18.13;9.90;;;;;;;;;;4999085;28;20448;-90
2022/11/22 03:19:53;;;;;;;14.33;8.57;;;;;;;;;;5018260;28;20420;-89
2022/11/22 03:22:19;;;;;;;14.97;9.70;;;;;;;;;;5018458;28;20451;-86
2022/11/22 03:24:45;;;;;;;18.27;11.63;;;;;;;;;;5018384;28;20518;-90
2022/11/22 03:27:11;;;;;;;14.63;8.73;;;;;;;;;;5000771;28;21048;-90
2022/11/22 03:29:38;;;;;;;16.20;9.97;;;;;;;;;;5000961;28;20459;-90
2022/11/22 03:32:04;;;;;;;16.77;10.73;;;;;;;;;;5018710;28;20405;-90
2022/11/22 03:34:30;;;;;;;16.60;10.47;;;;;;;;;;5000880;28;20831;-88
2022/11/22 03:36:56;;;;;;;16.83;11.27;;;;;;;;;;5018104;28;20774;-90
2022/11/22 03:39:22;;;;;;;13.87;10.83;;;;;;;;;;5018019;28;20446;-90
2022/11/22 03:41:48;;;;;;;16.07;10.33;;;;;;;;;;5000808;28;20408;-89
2022/11/22 03:44:14;;;;;;;16.87;9.40;;;;;;;;;;5018096;28;20972;-89
2022/11/22 03:46:40;;;;;;;22.37;11.53;;;;;;;;;;5018026;28;20499;-95
2022/11/22 03:49:05;;;;;;;14.77;8.67;;;;;;;;;;5018698;28;20421;-92
2022/11/22 03:51:32;;;;;;;13.67;7.50;;;;;;;;;;5016794;28;20423;-93
2022/11/22 03:53:58;;;;;;;21.40;11.77;;;;;;;;;;5017085;28;20405;-89
2022/11/22 03:56:24;;;;;;;15.00;6.93;;;;;;;;;;4999910;28;20395;-90
2022/11/22 03:58:50;;;;;;;11.70;6.40;;;;;;;;;;4999811;28;20423;-88
2022/11/22 04:01:16;;;;;;;14.37;8.13;;;;;;;;;;4999931;28;20408;-94
2022/11/22 04:03:42;;;;;;;17.37;10.30;;;;;;;;;;5017310;28;20803;-88
2022/11/22 04:06:07;;;;;;;22.03;10.87;;;;;;;;;;5017407;28;20479;-89
2022/11/22 04:08:33;;;;;;;17.17;10.57;;;;;;;;;;5017477;28;20444;-93
2022/11/22 04:10:59;;;;;;;14.83;9.93;;;;;;;;;;4999126;28;20410;-87
2022/11/22 04:15:05;;;;;;;16.33;10.50;;;;;;;;;;4998546;28;20425;-88
2022/11/22 04:16:11;;;;;;;20.00;11.53;;;;;;;;;;5017392;28;20421;-92
2022/11/22 04:18:37;;;;;;;10.50;8.50;;;;;;;;;;5017965;28;20423;-93
2022/11/22 04:25:12;;;;;;;12.67;9.63;;;;;;;;;;5016992;28;20473;-91
2022/11/22 04:26:33;;;;;;;21.50;9.90;;;;;;;;;;5016972;28;20449;-90
2022/11/22 04:28:59;;;;;;;17.10;10.30;;;;;;;;;;5015465;28;20811;-91
2022/11/22 04:34:09;;;;;;;15.90;9.83;;;;;;;;;;5017874;28;20420;-92
2022/11/22 04:36:35;;;;;;;13.47;8.13;;;;;;;;;;5000709;28;20503;-90
2022/11/22 04:39:01;;;;;;;14.77;8.80;;;;;;;;;;5006314;28;20459;-93
2022/11/22 04:41:27;;;;;;;14.20;9.00;;;;;;;;;;5018887;28;20445;-88
2022/11/22 04:46:38;;;;;;;17.73;9.03;;;;;;;;;;5017112;28;20425;-94
2022/11/22 04:49:04;;;;;;;19.80;11.50;;;;;;;;;;4999553;28;20429;-91
2022/11/22 04:54:14;;;;;;;17.23;11.30;;;;;;;;;;5016364;28;20456;-94
2022/11/22 04:56:40;;;;;;;18.60;11.37;;;;;;;;;;4998497;28;20413;-92
2022/11/22 04:59:06;;;;;;;20.50;11.63;;;;;;;;;;4999107;28;20425;-88
2022/11/22 05:01:32;;;;;;;11.40;7.53;;;;;;;;;;4999115;28;20467;-90
2022/11/22 05:03:58;;;;;;;22.50;11.17;;;;;;;;;;5021824;28;20515;-89
2022/11/22 05:06:24;;;;;;;20.93;9.83;;;;;;;;;;5001120;28;20418;-92
2022/11/22 05:08:49;;;;;;;19.67;10.80;;;;;;;;;;4998976;28;20436;-87
2022/11/22 05:11:15;;;;;;;20.67;11.20;;;;;;;;;;4998474;28;20410;-89
2022/11/22 05:13:44;;;;;;;18.00;10.90;;;;;;;;;;5000287;28;20422;-88
2022/11/22 05:16:12;;;;;;;15.33;9.67;;;;;;;;;;5017008;28;20422;-92
2022/11/22 05:18:38;;;;;;;21.33;12.50;;;;;;;;;;5021164;28;20763;-92
2022/11/22 05:21:12;;;;;;;17.10;10.87;;;;;;;;;;5016534;28;20420;-90
2022/11/22 05:23:53;;;;;;;15.23;7.70;;;;;;;;;;5015626;28;20980;-88
2022/11/22 05:26:20;;;;;;;13.17;8.33;;;;;;;;;;5015002;28;20421;-86
2022/11/22 05:28:46;;;;;;;18.57;10.30;;;;;;;;;;5015106;28;20457;-86
2022/11/22 05:31:13;;;;;;;16.93;10.43;;;;;;;;;;5015218;28;20879;-87
2022/11/22 05:33:40;;;;;;;21.03;10.93;;;;;;;;;;5015166;28;20509;-89
2022/11/22 05:36:07;;;;;;;19.20;10.23;;;;;;;;;;4997338;28;20447;-87
2022/11/22 05:38:34;;;;;;;14.17;9.07;;;;;;;;;;5014727;28;20503;-86
2022/11/22 05:41:00;;;;;;;19.97;13.43;;;;;;;;;;5013956;28;20456;-85
2022/11/22 05:43:27;;;;;;;21.60;11.80;;;;;;;;;;5014089;28;20972;-84
2022/11/22 05:45:53;;;;;;;18.20;12.23;;;;;;;;;;5014513;28;20421;-88
2022/11/22 05:48:19;;;;;;;15.37;10.40;;;;;;;;;;4997494;28;20484;-87
2022/11/22 05:50:45;;;;;;;17.20;8.90;;;;;;;;;;5014518;28;20980;-85
2022/11/22 05:53:10;;;;;;;18.70;11.27;;;;;;;;;;4996985;28;20438;-86
2022/11/22 05:55:36;;;;;;;12.10;7.43;;;;;;;;;;4996815;28;20549;-89
2022/11/22 05:58:02;;;;;;;17.60;11.90;;;;;;;;;;5013860;28;20440;-86
2022/11/22 06:00:28;;;;;;;18.00;9.03;;;;;;;;;;4996756;28;20414;-87
2022/11/22 06:02:59;;;;;;;19.93;10.77;;;;;;;;;;4997014;28;20511;-86
2022/11/22 06:05:25;;;;;;;16.83;10.20;;;;;;;;;;4996875;28;20536;-86
2022/11/22 06:07:51;;;;;;;16.27;10.27;;;;;;;;;;5014176;28;20817;-85
2022/11/22 06:10:18;;;;;;;16.80;10.37;;;;;;;;;;5014005;28;20410;-85
2022/11/22 06:12:44;;;;;;;16.13;11.20;;;;;;;;;;4996311;28;20778;-85
2022/11/22 06:15:10;;;;;;;22.80;13.63;;;;;;;;;;5014228;28;20456;-86
2022/11/22 06:17:36;;;;;;;21.13;11.53;;;;;;;;;;4997031;28;20432;-86
2022/11/22 06:20:02;;;;;;;16.93;10.97;;;;;;;;;;4989407;28;20431;-85
2022/11/22 06:22:28;;;;;;;21.13;11.50;;;;;;;;;;4977104;28;20429;-87
2022/11/22 06:24:54;;;;;;;19.80;13.97;;;;;;;;;;4994701;28;20464;-88
2022/11/22 06:27:20;;;;;;;23.43;12.43;;;;;;;;;;4976582;28;20978;-91
2022/11/22 06:29:46;;;;;;;22.63;11.73;;;;;;;;;;4977456;28;20425;-87
2022/11/22 06:32:12;;;;;;;15.27;10.03;;;;;;;;;;4977248;28;20434;-91
2022/11/22 06:34:38;;;;;;;23.77;12.60;;;;;;;;;;4978917;28;20430;-88
2022/11/22 06:37:06;;;;;;;22.00;12.17;;;;;;;;;;4979573;28;20410;-92
2022/11/22 06:39:32;;;;;;;17.33;11.63;;;;;;;;;;4978874;28;20464;-87
2022/11/22 06:41:58;;;;;;;18.90;11.00;;;;;;;;;;4978638;28;20847;-87
2022/11/22 06:44:24;;;;;;;23.93;12.60;;;;;;;;;;4979036;28;20481;-87
2022/11/22 06:46:50;;;;;;;22.70;11.53;;;;;;;;;;4978169;28;20477;-89
2022/11/22 06:49:16;;;;;;;15.63;11.10;;;;;;;;;;4983753;28;20927;-88
2022/11/22 06:51:42;;;;;;;17.83;11.30;;;;;;;;;;4961612;28;20404;-88
2022/11/22 06:54:11;;;;;;;16.03;10.77;;;;;;;;;;4967928;28;20765;-88
2022/11/22 06:56:38;;;;;;;15.03;9.40;;;;;;;;;;4972890;28;20410;-89
2022/11/22 06:59:05;;;;;;;19.03;10.73;;;;;;;;;;4974403;28;20423;-89
2022/11/22 07:01:31;;;;;;;23.63;11.33;;;;;;;;;;4994284;28;20482;-88
2022/11/22 07:03:57;;;;;;;14.63;10.73;;;;;;;;;;4977103;28;20467;-89
2022/11/22 07:06:28;;;;;;;21.50;11.47;;;;;;;;;;4977284;28;20429;-88
2022/11/22 07:08:54;;;;;;;20.83;11.60;;;;;;;;;;4976876;28;20799;-86
2022/11/22 07:11:21;;;;;;;21.63;14.00;;;;;;;;;;4980083;28;20429;-90
2022/11/22 07:13:47;;;;;;;19.87;12.60;;;;;;;;;;4979873;28;20418;-86
2022/11/22 07:16:15;;;;;;;25.00;12.20;;;;;;;;;;4980274;28;20427;-86
2022/11/22 07:18:41;;;;;;;18.97;11.13;;;;;;;;;;4977710;28;20465;-88
2022/11/22 07:21:11;;;;;;;24.97;14.40;;;;;;;;;;4978942;28;20419;-93
2022/11/22 07:23:38;;;;;;;16.33;9.37;;;;;;;;;;5014285;28;20449;-91
2022/11/22 07:26:04;;;;;;;18.57;11.00;;;;;;;;;;5013695;28;20425;-96
2022/11/22 07:28:30;;;;;;;18.00;12.90;;;;;;;;;;4998296;28;20612;-94
2022/11/22 07:31:00;;;;;;;21.07;12.03;;;;;;;;;;5014516;28;20441;-94
2022/11/22 07:33:27;;;;;;;17.83;11.67;;;;;;;;;;4999131;28;20420;-90
2022/11/22 07:35:53;;;;;;;18.67;9.93;;;;;;;;;;5014587;28;20464;-95
2022/11/22 07:38:21;;;;;;;21.73;12.70;;;;;;;;;;5016939;28;20409;-95
2022/11/22 07:40:47;;;;;;;21.40;13.40;;;;;;;;;;5013957;28;20410;-88
2022/11/22 07:43:14;;;;;;;16.10;10.83;;;;;;;;;;5015779;28;20455;-90
2022/11/22 07:45:40;;;;;;;23.03;12.07;;;;;;;;;;5016191;28;20473;-94
2022/11/22 07:48:06;;;;;;;13.77;8.93;;;;;;;;;;5018688;28;20464;-94
2022/11/22 07:50:33;;;;;;;22.40;14.57;;;;;;;;;;5001642;28;20470;-92
2022/11/22 07:53:00;;;;;;;21.37;13.53;;;;;;;;;;5019716;28;20452;-87
2022/11/22 07:55:26;;;;;;;19.10;11.63;;;;;;;;;;5000931;28;20429;-86
2022/11/22 07:57:58;;;;;;;22.90;15.33;;;;;;;;;;4999260;28;20422;-94
2022/11/22 08:00:26;;;;;;;19.13;12.33;;;;;;;;;;5016606;28;20802;-87
2022/11/22 08:02:52;;;;;;;24.13;12.80;;;;;;;;;;5018082;28;20420;-88
2022/11/22 08:05:18;;;;;;;15.97;9.87;;;;;;;;;;5003783;28;20560;-88
2022/11/22 08:07:48;;;;;;;21.57;12.63;;;;;;;;;;5022865;28;20437;-88
2022/11/22 08:10:14;;;;;;;20.73;12.67;;;;;;;;;;5009896;28;20425;-89
2022/11/22 08:12:40;;;;;;;21.57;13.27;;;;;;;;;;5002236;28;20410;-94
2022/11/22 08:15:06;;;;;;;17.63;10.33;;;;;;;;;;4999079;28;20426;-93
2022/11/22 08:17:32;;;;;;;17.87;10.70;;;;;;;;;;4999487;28;20428;-94
2022/11/22 08:19:58;;;;;;;20.43;12.50;;;;;;;;;;5016882;28;20753;-89
2022/11/22 08:22:24;;;;;;;21.80;11.53;;;;;;;;;;5017217;28;20808;-93
2022/11/22 08:24:53;;;;;;;24.30;14.70;;;;;;;;;;5000152;28;20854;-95
2022/11/22 08:27:19;;;;;;;14.90;12.17;;;;;;;;;;5017017;28;21000;-95
2022/11/22 08:29:45;;;;;;;18.60;11.27;;;;;;;;;;4999907;28;20426;-93
2022/11/22 08:32:17;;;;;;;19.97;11.07;;;;;;;;;;5017090;28;20421;-93
2022/11/22 08:34:46;;;;;;;14.67;10.60;;;;;;;;;;5005163;28;20422;-92
2022/11/22 08:37:12;;;;;;;17.77;13.23;;;;;;;;;;4995955;28;20436;-91
2022/11/22 08:39:38;;;;;;;16.30;9.93;;;;;;;;;;4983889;28;20441;-95
2022/11/22 08:42:05;;;;;;;19.83;11.20;;;;;;;;;;4983440;28;20431;-90
2022/11/22 08:44:31;;;;;;;18.90;12.53;;;;;;;;;;4981369;28;20829;-93
2022/11/22 08:46:57;;;;;;;13.17;9.00;;;;;;;;;;4979916;28;20424;-93
2022/11/22 08:49:23;;;;;;;19.73;12.50;;;;;;;;;;4979724;28;20410;-96
2022/11/22 08:51:49;;;;;;;14.23;10.10;;;;;;;;;;4963883;28;20512;-92
2022/11/22 08:54:15;;;;;;;21.20;12.23;;;;;;;;;;4999462;28;20435;-94
2022/11/22 08:56:41;;;;;;;18.47;12.43;;;;;;;;;;4979540;28;20422;-92
2022/11/22 08:59:07;;;;;;;18.30;12.10;;;;;;;;;;4978993;28;20788;-92
2022/11/22 09:01:33;;;;;;;18.20;11.40;;;;;;;;;;4980523;28;20418;-91
2022/11/22 09:03:59;;;;;;;17.10;12.13;;;;;;;;;;4981997;28;20462;-91
2022/11/22 09:06:25;;;;;;;15.23;8.53;;;;;;;;;;4982431;28;20432;-91
2022/11/22 09:08:51;;;;;;;20.97;12.73;;;;;;;;;;4979846;28;20474;-88
2022/11/22 09:11:18;;;;;;;22.83;12.53;;;;;;;;;;4995866;28;20848;-90
2022/11/22 09:13:45;;;;;;;22.00;11.10;;;;;;;;;;4978980;28;20468;-90
2022/11/22 09:16:15;;;;;;;14.43;8.57;;;;;;;;;;4980203;28;20426;-90
2022/11/22 09:18:42;;;;;;;16.53;8.90;;;;;;;;;;4979540;28;20461;-89
2022/11/22 09:21:09;;;;;;;17.13;9.73;;;;;;;;;;4979341;28;20928;-90
2022/11/22 09:23:35;;;;;;;20.80;12.93;;;;;;;;;;4995887;28;20415;-92
2022/11/22 09:26:09;;;;;;;20.80;10.63;;;;;;;;;;4978068;28;20438;-90
2022/11/22 09:28:35;;;;;;;16.37;10.90;;;;;;;;;;4978200;28;21009;-90
2022/11/22 09:31:02;;;;;;;24.87;13.40;;;;;;;;;;4978758;28;20429;-90
2022/11/22 09:33:29;;;;;;;23.50;14.07;;;;;;;;;;4978214;28;20420;-89
2022/11/22 09:36:02;;;;;;;24.23;13.53;;;;;;;;;;4978813;28;20457;-90
2022/11/22 09:38:29;;;;;;;24.00;14.30;;;;;;;;;;4980297;28;20414;-89
2022/11/22 09:40:55;;;;;;;23.17;12.27;;;;;;;;;;4978211;28;20547;-88
2022/11/22 09:43:27;;;;;;;21.87;11.90;;;;;;;;;;4978193;28;20522;-90
2022/11/22 09:46:08;;;;;;;22.23;11.23;;;;;;;;;;4978544;28;20505;-89
2022/11/22 09:48:53;;;;;;;15.97;10.80;;;;;;;;;;4975071;28;20420;-88
2022/11/22 09:51:20;;;;;;;24.13;12.27;;;;;;;;;;4959250;28;20473;-89
2022/11/22 09:53:54;;;;;;;25.00;15.63;;;;;;;;;;4969280;28;20424;-89
2022/11/22 09:56:23;;;;;;;20.17;12.73;;;;;;;;;;4960974;28;20415;-88
2022/11/22 09:58:54;;;;;;;29.97;17.00;;;;;;;;;;4979046;28;20427;-85
2022/11/22 10:01:20;;;;;;;20.27;12.47;;;;;;;;;;4985467;28;20408;-85
2022/11/22 10:03:48;;;;;;;19.17;9.97;;;;;;;;;;4977253;28;20502;-87
2022/11/22 10:06:20;;;;;;;23.37;13.77;;;;;;;;;;4974835;28;20750;-85
2022/11/22 10:08:51;;;;;;;17.83;12.10;;;;;;;;;;4977727;28;20427;-86
2022/11/22 10:11:23;;;;;;;17.33;10.77;;;;;;;;;;4983638;28;20494;-88
2022/11/22 10:13:51;;;;;;;19.97;13.27;;;;;;;;;;4958323;28;20459;-91
2022/11/22 10:16:25;;;;;;;18.00;11.90;;;;;;;;;;4975192;28;20408;-88
2022/11/22 10:19:04;;;;;;;17.90;11.00;;;;;;;;;;4979924;28;20426;-94
2022/11/22 10:21:30;;;;;;;24.40;11.90;;;;;;;;;;4979078;28;20498;-90
2022/11/22 10:23:56;;;;;;;18.47;11.60;;;;;;;;;;5000120;28;20987;-96
2022/11/22 10:26:33;;;;;;;21.90;12.90;;;;;;;;;;4978289;28;20439;-93
2022/11/22 10:29:09;;;;;;;19.73;11.50;;;;;;;;;;4997283;28;20464;-94
2022/11/22 10:31:59;;;;;;;21.47;12.40;;;;;;;;;;4979508;28;20425;-91
2022/11/22 10:34:45;;;;;;;18.87;9.67;;;;;;;;;;4981147;28;20761;-94
2022/11/22 10:37:30;;;;;;;19.37;11.67;;;;;;;;;;5001292;28;20414;-94
2022/11/22 10:40:12;;;;;;;21.77;11.63;;;;;;;;;;4999604;28;20417;-90
2022/11/22 10:42:57;;;;;;;21.57;12.50;;;;;;;;;;4999476;28;20922;-93
2022/11/22 10:45:32;;;;;;;17.73;10.80;;;;;;;;;;4986712;28;20476;-90
2022/11/22 10:48:18;;;;;;;18.67;12.10;;;;;;;;;;4989235;28;20439;-91
2022/11/22 10:51:02;;;;;;;15.30;10.03;;;;;;;;;;4986280;28;20809;-89
2022/11/22 10:53:42;;;;;;;21.60;11.27;;;;;;;;;;5000976;28;20411;-92
2022/11/22 10:56:13;;;;;;;17.80;11.83;;;;;;;;;;4983165;28;20410;-85
2022/11/22 10:58:59;;;;;;;16.97;10.30;;;;;;;;;;4999314;28;20414;-85
2022/11/22 11:01:29;;;;;;;16.67;11.90;;;;;;;;;;4984999;28;20422;-86
2022/11/22 11:03:58;;;;;;;18.13;10.57;;;;;;;;;;5003449;28;20897;-85
2022/11/22 11:06:41;;;;;;;20.10;12.63;;;;;;;;;;4999930;28;20924;-85
2022/11/22 11:09:15;;;;;;;22.77;11.83;;;;;;;;;;4980295;28;20474;-90
2022/11/22 11:11:41;;;;;;;26.00;14.60;;;;;;;;;;4982641;28;20454;-87
2022/11/22 11:14:12;;;;;;;21.87;11.57;;;;;;;;;;4981823;28;20425;-92
2022/11/22 11:16:38;;;;;;;16.60;10.73;;;;;;;;;;5017536;28;20407;-86
2022/11/22 11:19:13;;;;;;;17.87;10.90;;;;;;;;;;5011793;28;20412;-90
2022/11/22 11:21:58;;;;;;;19.27;11.73;;;;;;;;;;4990162;28;20493;-90
2022/11/22 11:24:27;;;;;;;20.43;11.83;;;;;;;;;;4992560;28;20480;-91
2022/11/22 11:26:55;;;;;;;18.37;10.37;;;2.00;99.90;;;;;;4985668;28;20429;-95
2022/11/22 11:29:49;;;;;;;16.70;12.10;;;2.00;99.90;;;;;;4991183;28;20426;-92
2022/11/22 11:32:18;;;;;;;14.93;10.57;;;1.90;99.90;;;;;;4980705;28;20460;-89
2022/11/22 11:34:56;;;;;;;17.77;11.57;;;2.00;99.90;;;;;;4979792;28;20423;-88
2022/11/22 11:37:26;;;;;;;15.97;8.77;;;1.90;99.90;;;;;;5000417;28;20416;-89
2022/11/22 11:39:52;;;;;;;19.27;10.13;;;2.00;99.90;;;;;;4985132;28;20413;-88
2022/11/22 11:42:25;;;;;;;22.27;12.27;;;2.00;99.90;;;;;;4982455;28;20414;-91
2022/11/22 11:44:51;;;;;;;18.00;12.30;;;2.00;99.90;;;;;;4983677;28;20474;-91
2022/11/22 11:47:37;;;;;;;18.57;12.07;;;2.00;99.90;;;;;;4980080;28;20480;-88
2022/11/22 11:50:15;;;;;;;19.27;11.17;;;2.00;99.90;;;;;;4995342;28;20651;-85
2022/11/22 11:52:51;;;;;;;15.00;10.53;;;2.00;99.90;;;;;;4996118;28;20502;-85
2022/11/22 11:55:17;;;;;;;19.13;11.83;;;2.00;99.90;;;;;;4996631;28;20497;-83
2022/11/22 11:57:44;;;;;;;14.90;8.97;;;2.00;99.90;;;;;;4978956;28;20518;-91
2022/11/22 12:00:20;;;;;;;21.93;13.30;;;2.00;99.90;;;;;;4981220;28;20176;-94
2022/11/22 12:02:46;;;;;;;18.60;10.97;;;2.00;99.90;;;;;;4998171;28;20436;-91
2022/11/22 12:05:12;;;;;;;18.80;10.10;;;2.10;99.90;;;;;;4980188;28;20508;-92
2022/11/22 12:07:48;;;;;;;21.30;12.93;;;2.10;99.90;;;;;;4981242;28;20514;-91
2022/11/22 12:10:33;;;;;;;16.30;9.30;;;2.10;99.90;;;;;;4981581;28;20189;-92
2022/11/22 12:13:08;;;;;;;16.90;11.50;;;2.10;99.90;;;;;;4982318;28;20407;-91
2022/11/22 12:15:55;;;;;;;20.43;11.07;;;2.10;99.90;;;;;;4982908;28;20468;-92
2022/11/22 12:18:53;;;;;;;22.17;11.67;;;2.10;99.90;;;;;;4981364;28;20434;-94
2022/11/22 12:21:38;;;;;;;19.33;12.57;;;2.20;99.90;;;;;;4980010;28;20485;-93
2022/11/22 12:24:39;;;;;;;20.50;10.47;;;2.20;99.90;;;;;;4980126;28;20553;-92
2022/11/22 12:27:08;;;;;;;15.70;9.87;;;2.30;99.90;;;;;;4938625;28;20437;-90
2022/11/22 12:29:36;;;;;;;14.37;8.47;;;2.30;99.90;;;;;;4980822;28;20986;-92
2022/11/22 12:32:06;;;;;;;19.80;11.00;;;2.30;99.90;;;;;;4984114;28;20431;-94
2022/11/22 12:35:01;;;;;;;17.90;12.60;;;2.20;99.90;;;;;;4983183;28;20420;-89
2022/11/22 12:37:29;;;;;;;22.93;13.03;;;2.20;99.90;;;;;;4982395;28;20831;-93
2022/11/22 12:40:00;;;;;;;18.43;10.90;;;2.30;99.90;;;;;;4981164;28;20461;-92
2022/11/22 12:42:33;;;;;;;20.80;11.90;;;2.30;99.90;;;;;;4999526;28;20419;-93
2022/11/22 12:45:08;;;;;;;17.70;13.03;;;2.30;99.90;;;;;;4982546;28;20471;-95
2022/11/22 12:47:41;;;;;;;18.60;10.90;;;2.40;99.90;;;;;;4984014;28;20422;-94
2022/11/22 12:50:13;;;;;;;20.97;11.73;;;2.40;99.90;;;;;;4967927;28;20530;-94
2022/11/22 12:52:51;;;;;;;21.27;10.77;;;2.50;99.90;;;;;;4985155;28;20413;-94
2022/11/22 12:55:23;;;;;;;21.87;13.07;;;2.40;99.90;;;;;;4981957;28;20430;-89
2022/11/22 12:58:16;;;;;;;21.10;13.03;;;2.50;99.90;;;;;;4982460;28;20419;-90
2022/11/22 13:01:05;;;;;;;22.70;12.03;;;2.50;99.90;;;;;;4994726;28;20431;-86
2022/11/22 13:03:43;;;;;;;18.90;12.43;;;2.50;99.90;;;;;;4996332;28;20415;-88
2022/11/22 13:06:09;;;;;;;19.60;10.10;;;2.50;99.90;;;;;;4996363;28;20787;-88
2022/11/22 13:08:57;;;;;;;19.10;10.40;;;2.50;99.90;;;;;;4995859;28;20898;-85
2022/11/22 13:11:33;;;;;;;19.53;11.20;;;2.50;99.90;;;;;;4977548;28;20438;-85
2022/11/22 13:14:11;;;;;;;20.83;11.20;;;2.50;99.90;;;;;;4978049;28;20434;-86
2022/11/22 13:16:37;;;;;;;21.10;10.73;;;2.50;99.90;;;;;;4995223;28;20492;-84
2022/11/22 13:19:05;;;;;;;19.03;11.30;;;2.40;99.90;;;;;;4995577;28;20887;-85
2022/11/22 13:21:59;;;;;;;19.83;11.23;;;2.40;99.90;;;;;;4995520;28;20164;-86
2022/11/22 13:24:47;;;;;;;21.73;11.00;;;2.50;99.90;;;;;;4976091;28;20973;-86
2022/11/22 13:27:26;;;;;;;20.30;10.63;;;2.50;99.90;;;;;;4994696;28;20421;-86
2022/11/22 13:29:56;;;;;;;21.67;12.40;;;2.50;99.90;;;;;;4977546;28;20493;-86
2022/11/22 13:32:29;;;;;;;18.60;11.77;;;2.50;99.90;;;;;;4977662;28;20414;-84
2022/11/22 13:35:25;;;;;;;21.80;12.30;;;2.40;99.90;;;;;;4977494;28;20447;-85
2022/11/22 13:38:19;;;;;;;20.43;12.70;;;2.40;99.90;;;;;;4977478;28;21066;-86
2022/11/22 13:40:50;;;;;;;22.97;12.47;;;2.40;99.90;;;;;;4974979;28;20772;-84
2022/11/22 13:43:15;;;;;;;22.63;12.90;;;2.40;99.90;;;;;;4994889;28;20415;-85
2022/11/22 13:46:03;;;;;;;21.67;13.20;;;2.40;99.90;;;;;;4994790;28;20518;-85
2022/11/22 13:48:38;;;;;;;21.43;11.60;;;2.40;99.90;;;;;;4977451;28;20179;-86
2022/11/22 13:51:11;;;;;;;19.30;12.57;;;2.40;99.90;;;;;;4994598;28;20472;-85
2022/11/22 13:53:41;;;;;;;20.40;12.20;;;2.40;99.90;;;;;;4977348;28;20429;-86
2022/11/22 13:56:19;;;;;;;20.67;14.47;;;2.40;99.90;;;;;;4976516;28;20430;-85
2022/11/22 13:58:50;;;;;;;14.70;10.53;;;2.40;99.90;;;;;;4994605;28;20469;-86
2022/11/22 14:01:32;;;;;;;24.87;12.83;;;2.40;99.90;;;;;;4994297;28;20419;-85
2022/11/22 14:04:15;;;;;;;21.03;11.77;;;2.30;99.90;;;;;;4977638;28;20878;-85
2022/11/22 14:06:53;;;;;;;19.83;11.67;;;2.30;99.90;;;;;;4978052;28;20923;-85
2022/11/22 14:09:43;;;;;;;21.23;12.47;;;2.40;99.90;;;;;;4977238;28;20410;-86
2022/11/22 14:12:56;;;;;;;19.10;11.00;;;2.40;99.90;;;;;;4977097;28;20855;-86
2022/11/22 14:15:42;;;;;;;17.13;9.30;;;2.50;99.90;;;;;;4945007;28;20434;-86
2022/11/22 14:18:42;;;;;;;22.23;11.77;;;3.20;99.90;;;;;;4977205;28;20469;-86
2022/11/22 14:21:23;;;;;;;22.07;14.07;;;2.60;99.90;;;;;;4994427;28;20434;-86
2022/11/22 14:24:12;;;;;;;27.53;15.57;;;2.50;99.90;;;;;;4977111;28;20839;-86
2022/11/22 14:27:08;;;;;;;20.03;13.17;;;2.40;99.90;;;;;;4976542;28;20435;-86